Time;durP1;ratioP1;P1;durP2;ratioP2;P2;SDS_P1;SDS_P2;PMS_P1;PMS_P2;Temp;Humidity;BMP_temperature;BMP_pressure;BME280_temperature;BME280_humidity;BME280_pressure;Samples;Min_cycle;Max_cycle;Signal;HPM_P1;HPM_P2
2022/02/07 00:00:13;;;;;;;8.80;2.75;;;;;;;16.82;58.16;100935.84;4963696;28;20031;-75
2022/02/07 00:05:22;;;;;;;7.25;2.53;;;;;;;16.83;58.36;100981.75;4965466;28;20023;-77
2022/02/07 00:07:47;;;;;;;6.80;2.60;;;;;;;16.82;58.13;100972.22;4982420;28;20027;-76
2022/02/07 00:10:14;;;;;;;5.43;2.42;;;;;;;16.82;58.22;100950.56;4954428;28;20065;-76
2022/02/07 00:12:45;;;;;;;8.10;2.60;;;;;;;16.81;58.12;100946.22;4968772;28;20026;-76
2022/02/07 00:15:14;;;;;;;5.75;2.40;;;;;;;16.81;58.03;100960.09;4952484;28;20113;-76
2022/02/07 00:17:40;;;;;;;5.82;2.67;;;;;;;16.82;58.02;100966.16;4986616;28;20023;-77
2022/02/07 00:20:12;;;;;;;5.97;2.33;;;;;;;16.82;58.08;100971.38;4988115;28;20031;-77
2022/02/07 00:22:38;;;;;;;6.25;2.30;;;;;;;16.82;57.95;100966.16;4987666;28;20037;-77
2022/02/07 00:25:04;;;;;;;6.10;2.35;;;;;;;16.81;57.72;100985.22;4953069;28;20114;-77
2022/02/07 00:27:29;;;;;;;5.22;2.28;;;;;;;16.80;57.83;100986.94;4985120;28;20037;-77
2022/02/07 00:29:55;;;;;;;7.18;2.47;;;;;;;16.81;58.06;101001.69;4969821;28;20043;-77
2022/02/07 00:32:20;;;;;;;5.15;2.30;;;;;;;16.80;57.79;101015.53;4952715;28;20086;-77
2022/02/07 00:34:45;;;;;;;6.65;2.47;;;;;;;16.81;57.98;101016.41;4968777;28;20059;-77
2022/02/07 00:37:11;;;;;;;7.40;2.70;;;;;;;16.80;57.75;101031.13;4950125;28;20054;-77
2022/02/07 00:39:44;;;;;;;7.28;2.55;;;;;;;16.81;57.84;101050.19;4951298;28;20033;-76
2022/02/07 00:42:19;;;;;;;;;;;;;;;16.80;57.60;101064.91;4969865;28;20023;-77
2022/02/07 00:44:46;;;;;;;6.43;2.20;;;;;;;16.81;57.95;101094.38;4969797;28;19914;-77
2022/02/07 00:47:12;;;;;;;3.75;1.83;;;;;;;16.81;57.56;101097.84;4952984;28;20049;-76
2022/02/07 00:49:37;;;;;;;5.93;2.42;;;;;;;16.81;57.31;101074.47;4970740;28;20062;-75
2022/02/07 00:52:03;;;;;;;4.20;2.05;;;;;;;16.80;57.61;101077.91;4954690;28;20041;-76
2022/02/07 00:54:28;;;;;;;6.15;2.03;;;;;;;16.80;57.41;101087.44;4987710;28;20030;-76
2022/02/07 00:56:54;;;;;;;6.63;1.90;;;;;;;16.80;57.73;101083.13;4953766;28;20062;-76
2022/02/07 00:59:19;;;;;;;4.45;1.90;;;;;;;16.79;57.40;101104.75;4965665;28;20030;-76
2022/02/07 01:01:44;;;;;;;5.75;2.35;;;;;;;16.81;57.38;101094.38;4970362;28;20030;-75
2022/02/07 01:04:10;;;;;;;5.80;2.30;;;;;;;16.80;57.51;101106.50;4987317;28;20031;-76
2022/02/07 01:06:35;;;;;;;6.78;2.30;;;;;;;16.80;57.48;101108.25;4970094;28;20041;-77
2022/02/07 01:09:12;;;;;;;5.93;2.30;;;;;;;16.79;57.24;101117.75;4988372;28;20031;-76
2022/02/07 01:12:00;;;;;;;4.55;1.98;;;;;;;16.79;57.48;101114.28;4971321;28;20027;-77
2022/02/07 01:51:57;;;;;;;5.13;2.15;;;;;;;16.77;57.00;101285.81;4985554;28;20128;-77
2022/02/07 01:54:37;;;;;;;6.68;2.00;;;;;;;16.78;56.93;101286.69;4987537;28;20027;-77
2022/02/07 01:57:05;;;;;;;6.53;2.08;;;;;;;16.78;56.94;101302.28;4971074;28;20067;-77
2022/02/07 01:59:31;;;;;;;5.60;2.20;;;;;;;16.78;56.88;101308.34;4983494;28;20031;-77
2022/02/07 02:01:56;;;;;;;5.60;1.90;;;;;;;16.77;56.78;101317.00;4934152;28;20078;-77
2022/02/07 02:04:22;;;;;;;6.82;2.15;;;;;;;16.78;56.91;101330.88;4983406;28;20027;-77
2022/02/07 02:06:48;;;;;;;5.20;2.00;;;;;;;16.78;56.76;101343.84;4965271;28;20106;-77
2022/02/07 02:09:13;;;;;;;6.50;1.67;;;;;;;16.77;56.74;101329.16;4982809;28;20054;-77
2022/02/07 02:11:41;;;;;;;4.80;1.95;;;;;;;16.77;56.74;101330.00;4981522;28;20477;-77
2022/02/07 02:14:31;;;;;;;5.50;2.08;;;;;;;16.78;56.65;101346.47;4948941;28;20038;-77
2022/02/07 02:20:17;;;;;;;5.40;2.08;;;;;;;16.77;56.57;101347.34;4947435;28;20038;-77
2022/02/07 02:38:44;;;;;;;5.43;1.83;;;;;;;16.76;56.53;101419.22;4963563;28;20497;-76
2022/02/07 02:46:38;;;;;;;;;;;;;;;16.76;56.31;101419.22;4964084;28;20038;-76
2022/02/07 02:49:03;;;;;;;5.25;1.60;;;;;;;16.77;56.29;101435.72;4961489;28;19914;-76
2022/02/07 02:51:30;;;;;;;4.50;1.80;;;;;;;16.77;56.28;101444.38;4977786;28;20084;-78
2022/02/07 02:53:55;;;;;;;6.55;1.90;;;;;;;16.76;56.29;101453.00;4943799;28;20033;-78
2022/02/07 02:56:22;;;;;;;5.30;1.95;;;;;;;16.76;55.99;101462.53;4977013;28;20047;-77
2022/02/07 02:58:48;;;;;;;4.15;2.00;;;;;;;16.76;56.14;101459.94;4976772;28;20486;-78
2022/02/07 03:01:13;;;;;;;5.38;1.90;;;;;;;16.76;55.99;101463.41;4959821;28;20797;-76
2022/02/07 03:03:39;;;;;;;5.72;2.00;;;;;;;16.75;56.14;101482.47;4959204;28;20458;-77
2022/02/07 03:06:04;;;;;;;4.20;1.75;;;;;;;16.76;56.18;101475.53;4975454;28;20397;-76
2022/02/07 03:08:30;;;;;;;4.80;1.88;;;;;;;16.76;56.04;101483.34;4959277;28;20126;-76
2022/02/07 03:18:34;;;;;;;6.20;1.98;;;;;;;16.76;55.89;101507.59;4949427;28;20119;-76
2022/02/07 03:20:59;;;;;;;3.30;1.60;;;;;;;16.76;55.84;101514.53;4945110;28;20499;-76
2022/02/07 03:23:26;;;;;;;4.35;1.80;;;;;;;16.74;55.83;101522.31;4960589;28;20026;-76
2022/02/07 03:25:52;;;;;;;7.03;1.90;;;;;;;16.75;55.91;101520.59;4978188;28;20057;-77
2022/02/07 03:28:21;;;;;;;5.95;1.70;;;;;;;16.75;55.79;101531.00;4977323;28;20037;-77
2022/02/07 03:30:47;;;;;;;5.15;1.88;;;;;;;16.75;56.07;101542.25;4961589;28;20019;-77
2022/02/07 03:33:12;;;;;;;4.65;1.80;;;;;;;16.74;55.76;101552.63;4948382;28;20058;-78
2022/02/07 03:35:39;;;;;;;5.78;2.00;;;;;;;16.75;55.73;101546.59;4981734;28;20030;-77
2022/02/07 03:38:06;;;;;;;5.15;1.80;;;;;;;16.74;55.87;101566.50;4963858;28;20473;-76
2022/02/07 03:40:31;;;;;;;3.67;1.58;;;;;;;16.75;55.66;101581.25;4963181;28;20023;-78
2022/02/07 03:42:57;;;;;;;3.60;1.95;;;;;;;16.75;55.50;101588.19;4962660;28;20528;-77
2022/02/07 03:45:23;;;;;;;4.50;1.58;;;;;;;16.75;55.66;101588.19;4962060;28;20054;-77
2022/02/07 03:47:48;;;;;;;6.13;1.80;;;;;;;16.74;55.66;101597.69;4963470;28;20114;-77
2022/02/07 03:50:14;;;;;;;4.68;1.80;;;;;;;16.75;55.46;101606.38;4969706;28;20556;-77
2022/02/07 03:52:39;;;;;;;4.65;1.77;;;;;;;16.75;55.54;101628.03;4971317;28;20035;-77
2022/02/07 03:55:06;;;;;;;4.93;1.83;;;;;;;16.74;55.58;101626.28;4985931;28;20450;-77
2022/02/07 03:57:31;;;;;;;6.38;1.77;;;;;;;16.74;55.56;101643.59;4987162;28;20043;-78
2022/02/07 03:59:57;;;;;;;3.35;1.60;;;;;;;16.73;55.40;101632.34;4973391;28;20045;-77
2022/02/07 04:02:22;;;;;;;4.32;1.70;;;;;;;16.74;55.46;101649.66;4971927;28;20026;-77
2022/02/07 04:04:55;;;;;;;5.75;1.70;;;;;;;16.74;55.34;101649.66;4968558;28;20034;-77
2022/02/07 04:07:21;;;;;;;4.20;1.60;;;;;;;16.74;55.26;101651.41;4969092;28;20051;-77
2022/02/07 04:09:51;;;;;;;5.32;1.48;;;;;;;16.74;55.12;101662.66;4967712;28;20039;-77
2022/02/07 04:12:21;;;;;;;4.93;1.73;;;;;;;16.73;55.28;101658.34;4967937;28;20023;-77
2022/02/07 04:14:46;;;;;;;4.28;1.55;;;;;;;16.74;55.50;101672.19;4952982;28;20058;-77
2022/02/07 04:17:18;;;;;;;4.82;1.65;;;;;;;16.74;55.28;101675.66;4967708;28;20025;-77
2022/02/07 04:19:43;;;;;;;4.93;1.65;;;;;;;16.73;55.41;101679.13;4968703;28;20027;-77
2022/02/07 04:22:09;;;;;;;5.03;1.77;;;;;;;16.73;55.36;101692.13;4991087;28;20033;-77
2022/02/07 04:24:35;;;;;;;4.25;1.80;;;;;;;16.73;55.25;101704.25;4972878;28;20054;-76
2022/02/07 04:27:01;;;;;;;5.35;2.10;;;;;;;16.73;55.13;101704.25;4969294;28;20030;-76
2022/02/07 04:29:26;;;;;;;5.63;1.88;;;;;;;16.74;55.29;101713.78;4968562;28;20031;-77
2022/02/07 04:31:52;;;;;;;4.68;2.00;;;;;;;16.72;55.20;101723.28;4968539;28;20030;-77
2022/02/07 04:34:18;;;;;;;5.82;1.80;;;;;;;16.72;55.26;101742.34;4985182;28;20424;-77
2022/02/07 04:36:45;;;;;;;6.82;1.88;;;;;;;16.73;55.22;101751.03;4967703;28;20031;-77
2022/02/07 04:39:11;;;;;;;6.35;2.13;;;;;;;16.73;55.10;101761.44;4968461;28;20054;-78
2022/02/07 04:41:40;;;;;;;5.53;1.88;;;;;;;16.73;54.98;101761.44;4967917;28;20473;-76
2022/02/07 04:44:09;;;;;;;5.60;2.00;;;;;;;16.71;55.04;101766.63;4952354;28;20035;-77
2022/02/07 04:49:20;;;;;;;4.60;1.88;;;;;;;16.71;55.23;101783.94;4984101;28;20034;-76
2022/02/07 04:51:59;;;;;;;5.32;1.85;;;;;;;16.72;55.13;101788.25;4952447;28;20026;-77
2022/02/07 04:57:18;;;;;;;5.07;2.17;;;;;;;16.72;55.00;101809.06;4969278;28;20125;-78
2022/02/07 04:59:57;;;;;;;5.25;1.95;;;;;;;16.71;54.90;101816.00;4967952;28;20030;-77
2022/02/07 05:05:09;;;;;;;4.70;1.63;;;;;;;16.71;54.98;101830.72;4984889;28;20070;-77
2022/02/07 05:13:44;;;;;;;7.05;2.08;;;;;;;16.70;54.71;101829.88;4978873;28;20609;-77
2022/02/07 05:16:00;;;;;;;;;;;;;;;16.71;54.92;101843.72;4977706;28;20038;-77
2022/02/07 05:18:28;;;;;;;5.15;1.75;;;;;;;16.69;54.89;101846.28;4977156;28;19914;-77
2022/02/07 05:20:53;;;;;;;4.70;1.52;;;;;;;16.70;54.95;101857.56;4961153;28;20031;-77
2022/02/07 05:23:19;;;;;;;11.85;1.67;;;;;;;16.70;55.69;101862.75;4959565;28;20536;-78
2022/02/07 05:25:44;;;;;;;5.18;1.95;;;;;;;16.70;54.63;101863.66;4975382;28;20034;-79
2022/02/07 05:28:09;;;;;;;5.22;1.70;;;;;;;16.71;54.74;101867.97;4943311;28;20030;-78
2022/02/07 05:30:35;;;;;;;5.57;1.85;;;;;;;16.71;54.75;101874.91;4960326;28;20433;-78
2022/02/07 05:33:00;;;;;;;4.07;1.50;;;;;;;16.71;54.64;101887.91;4944251;28;20482;-78
2022/02/07 05:35:26;;;;;;;6.28;1.98;;;;;;;16.72;54.92;101894.84;4943639;28;20027;-78
2022/02/07 05:37:51;;;;;;;5.85;1.90;;;;;;;16.72;54.84;101905.22;4943160;28;20089;-78
2022/02/07 05:40:34;;;;;;;6.35;2.08;;;;;;;16.72;54.72;101907.81;4943130;28;20023;-78
2022/02/07 05:43:00;;;;;;;3.20;1.45;;;;;;;16.72;54.42;101908.69;4948115;28;20050;-78
2022/02/07 05:45:26;;;;;;;4.68;1.80;;;;;;;16.73;54.45;101913.06;4960366;28;20401;-78
2022/02/07 05:47:52;;;;;;;5.13;1.90;;;;;;;16.73;54.23;101914.78;4976807;28;20105;-78
2022/02/07 05:50:18;;;;;;;5.63;1.73;;;;;;;16.72;54.39;101915.63;4959551;28;20458;-78
2022/02/07 05:52:43;;;;;;;4.70;1.73;;;;;;;16.72;54.16;101915.63;4958472;28;20031;-79
2022/02/07 05:55:08;;;;;;;4.60;1.65;;;;;;;16.70;54.32;101922.53;4958810;28;20093;-78
2022/02/07 05:57:34;;;;;;;3.78;1.63;;;;;;;16.72;54.33;101926.88;4944158;28;20121;-78
2022/02/07 06:00:02;;;;;;;5.60;1.83;;;;;;;16.71;54.30;101935.56;4945148;28;20046;-77
2022/02/07 06:02:27;;;;;;;4.93;1.88;;;;;;;16.72;54.42;101939.88;4960381;28;20072;-76
2022/02/07 06:04:52;;;;;;;6.03;1.80;;;;;;;16.72;54.19;101952.88;4944375;28;20118;-77
2022/02/07 06:07:18;;;;;;;4.47;1.75;;;;;;;16.73;54.53;101962.44;4960485;28;20035;-79
2022/02/07 06:09:43;;;;;;;13.38;4.20;;;;;;;16.73;54.48;101962.44;4961119;28;20030;-77
2022/02/07 06:12:09;;;;;;;14.15;4.75;;;;;;;16.75;54.71;101971.13;4944907;28;20383;-78
2022/02/07 06:14:35;;;;;;;19.05;5.18;;;;;;;16.76;54.78;101970.25;4962473;28;20038;-78
2022/02/07 06:17:01;;;;;;;11.90;4.40;;;;;;;16.73;55.16;101962.44;4959671;28;20138;-76
2022/02/07 06:19:26;;;;;;;12.57;4.28;;;;;;;16.72;55.06;101958.09;4959719;28;20058;-77
2022/02/07 06:21:52;;;;;;;14.60;3.97;;;;;;;16.73;55.12;101969.38;4959405;28;20104;-76
2022/02/07 06:24:18;;;;;;;11.00;3.70;;;;;;;16.72;55.17;101963.28;4943137;28;20065;-76
2022/02/07 06:26:43;;;;;;;20.00;4.25;;;;;;;16.73;55.18;101966.78;4959291;28;20037;-76
2022/02/07 06:29:08;;;;;;;10.85;3.65;;;;;;;16.73;55.28;101974.56;4959514;28;20030;-76
2022/02/07 06:31:34;;;;;;;9.57;3.63;;;;;;;16.73;55.33;101974.56;4963394;28;20027;-75
2022/02/07 06:33:59;;;;;;;10.63;3.33;;;;;;;16.73;55.50;101987.56;4964489;28;20023;-76
2022/02/07 06:36:24;;;;;;;9.32;3.47;;;;;;;16.71;55.17;102000.53;4966113;28;20033;-75
2022/02/07 06:38:50;;;;;;;9.25;3.80;;;;;;;16.71;55.21;101999.66;4947498;28;20052;-76
2022/02/07 06:41:16;;;;;;;10.63;3.30;;;;;;;16.70;55.33;102001.41;4945089;28;20437;-76
2022/02/07 06:43:41;;;;;;;9.80;3.80;;;;;;;16.70;55.48;102017.00;4961024;28;20069;-76
2022/02/07 06:46:07;;;;;;;8.95;3.75;;;;;;;16.70;55.47;102022.19;4978702;28;20421;-76
2022/02/07 06:48:32;;;;;;;10.25;3.80;;;;;;;16.70;55.45;102031.69;4945509;28;20053;-76
2022/02/07 06:50:58;;;;;;;10.88;3.80;;;;;;;16.69;55.58;102037.75;4960321;28;20030;-76
2022/02/07 06:53:23;;;;;;;11.23;3.40;;;;;;;16.66;55.64;102047.25;4945069;28;20030;-76
2022/02/07 06:55:49;;;;;;;10.52;3.65;;;;;;;16.67;55.83;102062.00;4950766;28;20029;-75
2022/02/07 06:58:15;;;;;;;9.93;4.00;;;;;;;16.67;55.62;102084.53;4951674;28;20093;-76
2022/02/07 07:00:40;;;;;;;6.50;3.10;;;;;;;16.67;55.67;102093.19;4983361;28;20113;-75
2022/02/07 07:03:06;;;;;;;8.57;3.38;;;;;;;16.67;55.50;102097.50;4979333;28;20469;-76
2022/02/07 07:05:31;;;;;;;10.32;3.63;;;;;;;16.65;55.43;102097.47;4959797;28;20038;-76
2022/02/07 07:07:57;;;;;;;9.15;3.00;;;;;;;16.65;55.44;102094.03;4977597;28;20023;-76
2022/02/07 07:10:22;;;;;;;11.40;3.78;;;;;;;16.63;55.74;102106.97;4960636;28;20037;-76
2022/02/07 07:12:56;;;;;;;9.60;3.35;;;;;;;16.64;55.83;102116.53;4960850;28;20058;-76
2022/02/07 07:15:35;;;;;;;9.35;3.45;;;;;;;16.65;55.48;102135.59;4960596;28;20027;-76
2022/02/07 07:18:00;;;;;;;8.48;3.60;;;;;;;16.64;55.53;102129.53;4961458;28;20038;-75
2022/02/07 07:20:27;;;;;;;8.88;3.60;;;;;;;16.64;55.71;102149.47;4943250;28;20031;-75
2022/02/07 07:22:52;;;;;;;10.45;3.42;;;;;;;16.64;55.50;102152.94;4960707;28;20034;-76
2022/02/07 07:25:18;;;;;;;8.35;3.20;;;;;;;16.63;55.38;102171.09;4944989;28;20061;-77
2022/02/07 07:28:00;;;;;;;6.93;2.92;;;;;;;16.62;55.50;102172.81;4979911;28;20103;-75
2022/02/07 07:30:29;;;;;;;7.68;3.03;;;;;;;16.63;55.35;102174.56;4948634;28;20492;-76
2022/02/07 07:33:00;;;;;;;10.68;3.53;;;;;;;16.62;55.47;102169.34;4945128;28;20389;-75
2022/02/07 07:35:27;;;;;;;9.80;3.35;;;;;;;16.63;55.59;102181.47;4961815;28;20038;-76
2022/02/07 07:37:52;;;;;;;8.65;3.28;;;;;;;16.63;55.33;102197.94;4981875;28;20058;-75
2022/02/07 07:40:18;;;;;;;8.35;3.05;;;;;;;16.64;55.52;102194.50;4948266;28;20031;-75
2022/02/07 07:42:51;;;;;;;9.75;3.30;;;;;;;16.64;55.50;102207.50;4959523;28;20073;-75
2022/02/07 07:45:19;;;;;;;8.88;3.25;;;;;;;16.64;55.38;102215.31;4981345;28;20059;-77
2022/02/07 07:47:46;;;;;;;7.10;2.63;;;;;;;16.65;55.42;102221.38;4984165;28;20030;-76
2022/02/07 07:50:25;;;;;;;6.65;2.83;;;;;;;16.67;55.40;102236.13;4948396;28;20126;-77
2022/02/07 08:03:18;;;;;;;;;;;;;;;16.69;55.34;102241.38;4962860;28;20504;-77
2022/02/07 08:05:48;;;;;;;7.72;2.75;;;;;;;16.71;55.13;102244.88;4959165;28;19914;-76
2022/02/07 08:08:25;;;;;;;10.00;3.03;;;;;;;16.75;55.12;102248.41;4943253;28;20173;-76
2022/02/07 08:11:02;;;;;;;6.20;2.50;;;;;;;16.78;55.34;102244.13;4929531;28;20066;-77
2022/02/07 08:13:30;;;;;;;5.93;2.65;;;;;;;16.80;55.19;102249.38;4959537;28;20054;-77
2022/02/07 08:15:56;;;;;;;10.07;3.50;;;;;;;16.83;55.21;102257.22;4959175;28;20042;-76
2022/02/07 08:18:21;;;;;;;6.93;2.55;;;;;;;16.82;55.01;102269.34;4961746;28;20039;-77
2022/02/07 08:20:47;;;;;;;7.43;2.65;;;;;;;16.82;55.17;102274.56;4979148;28;20093;-77
2022/02/07 08:23:12;;;;;;;6.60;2.50;;;;;;;16.84;55.12;102282.38;4946072;28;20496;-77
2022/02/07 08:25:38;;;;;;;8.95;3.08;;;;;;;16.85;54.88;102281.53;4962007;28;20030;-77
2022/02/07 08:28:04;;;;;;;9.35;2.53;;;;;;;16.85;54.78;102287.63;4961710;28;20069;-76
2022/02/07 08:30:29;;;;;;;7.53;2.97;;;;;;;16.88;55.37;102289.38;4961232;28;20038;-76
2022/02/07 08:32:57;;;;;;;7.18;2.72;;;;;;;16.90;54.70;102294.59;4960952;28;20068;-76
2022/02/07 08:35:22;;;;;;;5.88;2.42;;;;;;;16.94;54.72;102284.28;4945053;28;20054;-76
2022/02/07 08:37:49;;;;;;;7.43;3.03;;;;;;;16.98;54.75;102290.41;4960993;28;20062;-75
2022/02/07 08:40:15;;;;;;;5.20;2.22;;;;;;;17.02;54.17;102298.28;4944827;28;20557;-76
2022/02/07 08:42:41;;;;;;;6.28;2.55;;;;;;;17.06;54.29;102310.47;4977076;28;20030;-76
2022/02/07 08:45:07;;;;;;;7.05;2.20;;;;;;;17.09;54.16;102314.84;4976873;28;20385;-78
2022/02/07 08:47:32;;;;;;;8.05;2.47;;;;;;;17.12;54.09;102329.66;4960989;28;20068;-77
2022/02/07 08:49:58;;;;;;;7.47;2.80;;;;;;;17.13;54.11;102342.66;4960521;28;20026;-77
2022/02/07 08:52:24;;;;;;;5.18;2.22;;;;;;;17.14;53.86;102343.56;4944991;28;20033;-77
2022/02/07 08:54:51;;;;;;;6.38;2.47;;;;;;;17.14;53.94;102347.03;4960632;28;20126;-77
2022/02/07 08:57:25;;;;;;;5.90;2.38;;;;;;;17.15;53.98;102360.91;4960569;28;20051;-77
2022/02/07 09:00:16;;;;;;;5.43;2.30;;;;;;;17.16;53.77;102375.66;4945610;28;20612;-77
2022/02/07 09:05:36;;;;;;;5.63;2.50;;;;;;;17.21;53.69;102390.50;4960954;28;20038;-76
2022/02/07 09:10:34;;;;;;;6.00;2.35;;;;;;;17.25;53.65;102394.03;4977724;28;20027;-76
2022/02/07 09:13:00;;;;;;;5.43;2.50;;;;;;;17.22;53.49;102387.06;4959691;28;20074;-77
2022/02/07 09:15:38;;;;;;;5.28;2.17;;;;;;;17.20;53.77;102396.56;4960509;28;20034;-76
2022/02/07 09:18:07;;;;;;;5.80;2.13;;;;;;;17.20;53.85;102399.16;4961805;28;20035;-76
2022/02/07 09:20:36;;;;;;;5.07;2.17;;;;;;;17.20;53.77;102411.28;4975844;28;20046;-76
2022/02/07 09:23:02;;;;;;;5.55;2.40;;;;;;;17.19;53.83;102406.94;4959724;28;20031;-76
2022/02/07 09:25:28;;;;;;;6.22;2.25;;;;;;;17.18;53.56;102411.28;4959577;28;20045;-77
2022/02/07 09:27:55;;;;;;;5.25;1.98;;;;;;;17.18;53.82;102411.28;4943789;28;20041;-77
2022/02/07 09:30:20;;;;;;;4.45;1.88;;;;;;;17.20;53.77;102413.88;4951836;28;20355;-76
2022/02/07 09:32:46;;;;;;;4.28;2.00;;;;;;;17.24;53.71;102431.28;4968816;28;20106;-77
2022/02/07 09:35:12;;;;;;;6.88;2.15;;;;;;;17.21;53.57;102431.25;4966748;28;20042;-77
2022/02/07 09:37:38;;;;;;;4.72;1.90;;;;;;;17.18;53.72;102426.88;4980842;28;20027;-77
2022/02/07 09:40:05;;;;;;;5.07;2.15;;;;;;;17.17;53.67;102437.25;4962407;28;20051;-77
2022/02/07 09:42:31;;;;;;;6.63;2.13;;;;;;;17.18;53.88;102444.19;4979728;28;20030;-77
2022/02/07 09:45:07;;;;;;;4.15;1.85;;;;;;;17.19;53.77;102456.38;4946302;28;20038;-76
2022/02/07 09:47:33;;;;;;;5.75;2.00;;;;;;;17.16;53.78;102471.91;4982612;28;20030;-76
2022/02/07 09:49:58;;;;;;;5.93;2.15;;;;;;;17.14;53.83;102481.44;4983433;28;20030;-76
2022/02/07 09:52:24;;;;;;;5.43;2.13;;;;;;;17.12;53.89;102489.19;4965122;28;20033;-76
2022/02/07 09:54:49;;;;;;;7.38;2.33;;;;;;;17.16;53.85;102493.63;4963479;28;20088;-77
2022/02/07 09:57:20;;;;;;;5.45;2.08;;;;;;;17.17;53.62;102494.47;4962124;28;20069;-76
2022/02/07 09:59:48;;;;;;;4.78;1.90;;;;;;;17.16;53.55;102500.50;4962684;28;20034;-76
2022/02/07 10:02:43;;;;;;;5.05;1.98;;;;;;;17.21;53.53;102502.38;4978991;28;20062;-76
2022/02/07 10:05:15;;;;;;;4.35;1.80;;;;;;;17.21;53.56;102497.16;4961949;28;20489;-77
2022/02/07 10:08:00;;;;;;;5.03;2.25;;;;;;;17.22;53.49;102495.44;4978358;28;20112;-78
2022/02/07 10:10:36;;;;;;;4.43;1.90;;;;;;;17.20;53.69;102517.94;4977181;28;20066;-77
2022/02/07 10:15:55;;;;;;;4.63;1.85;;;;;;;17.20;53.36;102512.72;4977157;28;20393;-77
2022/02/07 10:21:57;;;;;;;6.73;2.20;;;;;;;17.20;53.60;102520.53;4976500;28;20030;-76
2022/02/07 10:40:34;;;;;;;3.67;1.70;;;;;;;17.18;53.51;102546.53;4947106;28;20038;-76
2022/02/07 10:45:33;;;;;;;4.57;1.98;;;;;;;17.19;53.22;102547.41;4975784;28;20026;-76
2022/02/07 10:48:01;;;;;;;5.68;2.30;;;;;;;17.15;53.56;102546.47;4942543;28;20393;-76
2022/02/07 10:50:26;;;;;;;6.25;2.00;;;;;;;17.16;53.24;102550.84;4958653;28;20039;-77
2022/02/07 10:52:59;;;;;;;5.72;1.95;;;;;;;17.14;53.35;102544.72;4942464;28;20023;-77
2022/02/07 10:55:33;;;;;;;6.78;1.98;;;;;;;17.13;53.49;102552.50;4942420;28;20034;-76
2022/02/07 10:58:01;;;;;;;4.00;1.77;;;;;;;17.12;53.54;102563.75;4958180;28;20046;-76
2022/02/07 11:00:32;;;;;;;6.63;2.10;;;;;;;17.11;53.60;102555.06;4973806;28;20027;-77
2022/02/07 11:03:05;;;;;;;4.43;1.73;;;;;;;17.12;53.33;102563.75;4975300;28;20027;-76
2022/02/07 11:05:41;;;;;;;4.93;1.73;;;;;;;17.11;53.33;102562.00;4975145;28;20019;-76
2022/02/07 11:08:27;;;;;;;5.50;2.10;;;;;;;17.12;53.50;102566.38;4959678;28;20030;-76
2022/02/07 11:16:22;;;;;;;5.50;1.90;;;;;;;17.10;53.39;102574.13;4975160;28;20037;-76
2022/02/07 11:21:23;;;;;;;4.68;1.92;;;;;;;17.12;53.12;102564.63;4958967;28;20354;-77
2022/02/07 11:24:28;;;;;;;6.82;2.10;;;;;;;17.11;53.36;102564.59;4959073;28;20064;-76
2022/02/07 11:26:53;;;;;;;4.70;1.92;;;;;;;17.11;53.18;102569.78;4957767;28;20029;-77
2022/02/07 11:29:46;;;;;;;4.38;1.77;;;;;;;17.11;52.92;102559.38;4974850;28;20026;-77
2022/02/07 11:32:41;;;;;;;4.97;1.90;;;;;;;17.11;53.31;102557.66;4974883;28;20082;-77
2022/02/07 11:35:09;;;;;;;4.05;1.55;;;;;;;17.14;53.08;102554.25;4957522;28;20027;-76
2022/02/07 11:37:34;;;;;;;5.10;2.03;;;;;;;17.14;52.91;102552.53;4957865;28;20362;-76
2022/02/07 11:40:00;;;;;;;4.38;1.50;;;;;;;17.13;52.79;102544.69;4943963;28;20041;-76
2022/02/07 11:42:28;;;;;;;4.65;1.50;;;;;;;17.13;52.91;102558.56;4945296;28;20027;-76
2022/02/07 11:44:53;;;;;;;4.88;1.80;;;;;;;17.14;53.42;102567.28;4976843;28;20054;-76
2022/02/07 11:47:28;;;;;;;4.88;1.67;;;;;;;17.14;52.76;102562.06;4961812;28;20388;-76
2022/02/07 11:49:57;;;;;;;4.03;1.73;;;;;;;17.13;52.88;102560.31;4979349;28;20046;-76
2022/02/07 11:52:33;;;;;;;4.47;1.70;;;;;;;17.15;52.92;102569.00;4981156;28;20023;-77
2022/02/07 11:55:06;;;;;;;6.13;2.13;;;;;;;17.18;52.84;102571.66;4981374;28;20027;-79
2022/02/07 11:57:37;;;;;;;4.90;1.85;;;;;;;17.16;52.90;102579.47;4964055;28;20039;-77
2022/02/07 12:00:14;;;;;;;4.00;1.80;;;;;;;17.17;52.75;102586.41;4964085;28;20047;-78
2022/02/07 12:02:46;;;;;;;3.92;1.58;;;;;;;17.17;52.81;102593.34;4964993;28;20031;-75
2022/02/07 12:05:12;;;;;;;4.50;1.60;;;;;;;17.17;52.80;102599.41;4979947;28;20099;-75
2022/02/07 12:07:41;;;;;;;7.93;1.83;;;;;;;17.18;52.96;102600.28;4980961;28;20450;-78
2022/02/07 12:10:27;;;;;;;4.82;1.90;;;;;;;17.18;52.71;102603.78;4951872;28;20042;-77
2022/02/07 12:12:53;;;;;;;4.22;1.63;;;;;;;17.19;52.60;102607.25;4987306;28;20046;-76
2022/02/07 12:15:36;;;;;;;5.43;1.83;;;;;;;17.18;53.00;102608.09;4966176;28;20045;-77
2022/02/07 12:18:13;;;;;;;4.53;1.65;;;;;;;17.19;53.06;102612.47;4981776;28;20026;-78
2022/02/07 12:20:43;;;;;;;4.68;1.95;;;;;;;17.18;52.93;102605.47;4968057;28;20038;-77
2022/02/07 12:23:14;;;;;;;6.45;1.63;;;;;;;17.20;52.92;102617.69;4981791;28;20085;-78
2022/02/07 12:25:48;;;;;;;4.47;1.63;;;;;;;17.20;52.87;102622.00;4981287;28;20038;-77
2022/02/07 12:28:30;;;;;;;7.70;1.60;;;;;;;17.22;53.02;102612.50;4964053;28;20026;-77
2022/02/07 12:33:26;;;;;;;3.75;1.50;;;;;;;17.20;52.94;102619.41;4947950;28;20035;-77
2022/02/07 12:35:57;;;;;;;4.18;1.95;;;;;;;17.19;52.58;102618.53;4962647;28;20027;-77
2022/02/07 12:38:34;;;;;;;4.93;1.67;;;;;;;17.21;53.04;102631.59;4961560;28;20461;-79
2022/02/07 12:41:03;;;;;;;4.50;1.70;;;;;;;17.20;52.89;102625.50;4977064;28;20389;-79
2022/02/07 12:43:33;;;;;;;6.32;1.60;;;;;;;17.20;52.90;102628.09;4977881;28;20041;-77
2022/02/07 12:46:00;;;;;;;3.40;1.35;;;;;;;17.20;52.95;102612.50;4960538;28;20058;-76
2022/02/07 12:48:29;;;;;;;3.88;1.80;;;;;;;17.22;52.74;102615.09;4977310;28;20027;-75
2022/02/07 12:50:55;;;;;;;6.32;1.88;;;;;;;17.23;52.71;102622.94;4960558;28;20023;-76
2022/02/07 12:53:23;;;;;;;5.18;1.75;;;;;;;17.22;52.90;102625.50;4977754;28;20386;-75
2022/02/07 12:55:55;;;;;;;4.28;1.58;;;;;;;17.21;52.82;102635.06;4977554;28;20466;-75
2022/02/07 12:58:43;;;;;;;4.32;1.83;;;;;;;17.21;52.70;102628.97;4960889;28;20051;-75
2022/02/07 13:01:29;;;;;;;4.32;1.80;;;;;;;17.20;52.74;102632.41;4962862;28;20042;-75
2022/02/07 13:04:05;;;;;;;5.05;1.55;;;;;;;17.20;52.90;102640.22;4960786;28;20517;-76
2022/02/07 13:06:36;;;;;;;4.80;1.42;;;;;;;17.20;52.75;102635.91;4980053;28;20082;-77
2022/02/07 13:09:23;;;;;;;6.25;1.80;;;;;;;17.20;52.87;102643.72;4980505;28;20031;-76
2022/02/07 13:14:41;;;;;;;6.53;1.65;;;;;;;17.22;52.71;102644.63;4948321;28;20632;-76
2022/02/07 13:17:07;;;;;;;5.13;1.40;;;;;;;17.22;52.58;102646.31;4978084;28;20413;-76
2022/02/07 13:19:37;;;;;;;2.78;1.30;;;;;;;17.21;52.46;102647.19;4960450;28;20027;-76
2022/02/07 13:22:03;;;;;;;4.70;1.50;;;;;;;17.22;52.63;102643.72;4960506;28;20035;-76
2022/02/07 13:24:32;;;;;;;4.97;1.90;;;;;;;17.22;52.72;102639.44;4960042;28;20139;-76
2022/02/07 13:27:00;;;;;;;6.55;1.60;;;;;;;17.22;52.51;102635.91;4977184;28;20015;-77
2022/02/07 13:29:34;;;;;;;4.20;1.52;;;;;;;17.22;52.57;102635.91;4977644;28;20442;-76
2022/02/07 13:32:04;;;;;;;4.15;1.58;;;;;;;17.23;52.23;102641.16;4960224;28;20018;-76
2022/02/07 13:34:35;;;;;;;4.22;1.52;;;;;;;17.23;52.63;102643.75;4976898;28;20122;-76
2022/02/07 13:37:10;;;;;;;3.35;1.35;;;;;;;17.21;52.59;102648.06;4975488;28;20023;-76
2022/02/07 13:40:07;;;;;;;4.32;1.60;;;;;;;17.22;52.32;102647.22;4976934;28;20469;-76
2022/02/07 13:42:48;;;;;;;3.38;1.50;;;;;;;17.23;52.27;102656.78;4975763;28;20033;-76
2022/02/07 13:45:23;;;;;;;3.00;1.60;;;;;;;17.22;52.63;102651.53;4976763;28;20027;-76
2022/02/07 13:47:54;;;;;;;5.20;1.55;;;;;;;17.22;52.55;102659.34;4976664;28;20031;-76
2022/02/07 13:50:29;;;;;;;4.15;1.40;;;;;;;17.22;52.55;102657.63;4976743;28;20058;-76
2022/02/07 13:53:04;;;;;;;3.72;1.42;;;;;;;17.22;52.17;102655.03;4959145;28;20023;-76
2022/02/07 13:55:35;;;;;;;3.45;1.30;;;;;;;17.22;52.66;102651.53;4959291;28;20038;-76